sensor_id;sensor_type;location;lat;lon;timestamp;P1;durP1;ratioP1;P2;durP2;ratioP2
6282;SDS011;3174;53.486;9.568;2022-08-04T00:02:06;5.22;;;3.83;;
6282;SDS011;3174;53.486;9.568;2022-08-04T00:04:41;6.13;;;3.05;;
6282;SDS011;3174;53.486;9.568;2022-08-04T00:07:15;5.43;;;3.38;;
6282;SDS011;3174;53.486;9.568;2022-08-04T00:10:08;6.90;;;3.35;;
6282;SDS011;3174;53.486;9.568;2022-08-04T00:12:39;5.57;;;3.08;;
6282;SDS011;3174;53.486;9.568;2022-08-04T00:15:20;6.20;;;3.22;;
6282;SDS011;3174;53.486;9.568;2022-08-04T00:17:49;4.10;;;3.10;;
6282;SDS011;3174;53.486;9.568;2022-08-04T00:20:20;4.72;;;2.95;;
6282;SDS011;3174;53.486;9.568;2022-08-04T00:22:50;4.63;;;3.03;;
6282;SDS011;3174;53.486;9.568;2022-08-04T00:25:19;5.20;;;3.00;;
6282;SDS011;3174;53.486;9.568;2022-08-04T00:27:47;5.32;;;2.97;;
6282;SDS011;3174;53.486;9.568;2022-08-04T00:30:16;5.28;;;3.45;;
6282;SDS011;3174;53.486;9.568;2022-08-04T00:32:44;4.70;;;3.03;;
6282;SDS011;3174;53.486;9.568;2022-08-04T00:35:12;5.88;;;3.30;;
6282;SDS011;3174;53.486;9.568;2022-08-04T00:37:42;4.50;;;2.92;;
6282;SDS011;3174;53.486;9.568;2022-08-04T00:40:16;4.57;;;2.60;;
6282;SDS011;3174;53.486;9.568;2022-08-04T00:42:58;4.45;;;2.90;;
6282;SDS011;3174;53.486;9.568;2022-08-04T00:45:42;6.47;;;3.55;;
6282;SDS011;3174;53.486;9.568;2022-08-04T00:48:46;5.40;;;2.80;;
6282;SDS011;3174;53.486;9.568;2022-08-04T00:51:24;8.60;;;3.80;;
6282;SDS011;3174;53.486;9.568;2022-08-04T00:54:00;8.52;;;4.32;;
6282;SDS011;3174;53.486;9.568;2022-08-04T00:56:40;6.50;;;3.70;;
6282;SDS011;3174;53.486;9.568;2022-08-04T00:59:26;7.53;;;3.70;;
6282;SDS011;3174;53.486;9.568;2022-08-04T01:02:00;6.95;;;3.30;;
6282;SDS011;3174;53.486;9.568;2022-08-04T01:04:44;5.10;;;3.33;;
6282;SDS011;3174;53.486;9.568;2022-08-04T01:07:23;3.60;;;2.70;;
6282;SDS011;3174;53.486;9.568;2022-08-04T01:10:02;5.75;;;3.20;;
6282;SDS011;3174;53.486;9.568;2022-08-04T01:12:42;7.03;;;3.70;;
6282;SDS011;3174;53.486;9.568;2022-08-04T01:15:20;6.22;;;3.10;;
6282;SDS011;3174;53.486;9.568;2022-08-04T01:17:58;6.38;;;3.22;;
6282;SDS011;3174;53.486;9.568;2022-08-04T01:20:32;5.40;;;4.85;;
6282;SDS011;3174;53.486;9.568;2022-08-04T01:23:14;7.15;;;5.38;;
6282;SDS011;3174;53.486;9.568;2022-08-04T01:26:04;3.90;;;2.90;;
6282;SDS011;3174;53.486;9.568;2022-08-04T01:29:07;3.70;;;2.55;;
6282;SDS011;3174;53.486;9.568;2022-08-04T01:31:49;3.83;;;3.15;;
6282;SDS011;3174;53.486;9.568;2022-08-04T01:34:29;5.70;;;4.28;;
6282;SDS011;3174;53.486;9.568;2022-08-04T01:37:04;3.58;;;3.13;;
6282;SDS011;3174;53.486;9.568;2022-08-04T01:39:37;6.05;;;3.22;;
6282;SDS011;3174;53.486;9.568;2022-08-04T01:42:11;4.63;;;2.72;;
6282;SDS011;3174;53.486;9.568;2022-08-04T01:44:59;7.38;;;4.20;;
6282;SDS011;3174;53.486;9.568;2022-08-04T01:47:28;4.15;;;2.88;;
6282;SDS011;3174;53.486;9.568;2022-08-04T01:50:00;5.35;;;3.03;;
6282;SDS011;3174;53.486;9.568;2022-08-04T01:52:31;3.30;;;2.42;;
6282;SDS011;3174;53.486;9.568;2022-08-04T01:55:03;5.15;;;2.97;;
6282;SDS011;3174;53.486;9.568;2022-08-04T01:57:32;3.50;;;2.42;;
6282;SDS011;3174;53.486;9.568;2022-08-04T02:00:06;5.13;;;2.40;;
6282;SDS011;3174;53.486;9.568;2022-08-04T02:02:35;5.05;;;3.42;;
6282;SDS011;3174;53.486;9.568;2022-08-04T02:05:04;7.55;;;5.05;;
6282;SDS011;3174;53.486;9.568;2022-08-04T02:07:38;7.72;;;5.70;;
6282;SDS011;3174;53.486;9.568;2022-08-04T02:10:13;3.15;;;2.30;;
6282;SDS011;3174;53.486;9.568;2022-08-04T02:12:52;4.32;;;2.35;;
6282;SDS011;3174;53.486;9.568;2022-08-04T02:15:27;4.22;;;2.40;;
6282;SDS011;3174;53.486;9.568;2022-08-04T02:18:01;2.67;;;2.47;;
6282;SDS011;3174;53.486;9.568;2022-08-04T02:20:32;3.97;;;2.20;;
6282;SDS011;3174;53.486;9.568;2022-08-04T02:23:06;3.92;;;2.50;;
6282;SDS011;3174;53.486;9.568;2022-08-04T02:25:38;4.05;;;2.17;;
6282;SDS011;3174;53.486;9.568;2022-08-04T02:28:12;5.72;;;2.20;;
6282;SDS011;3174;53.486;9.568;2022-08-04T02:30:49;4.53;;;2.80;;
6282;SDS011;3174;53.486;9.568;2022-08-04T02:33:22;3.90;;;2.45;;
6282;SDS011;3174;53.486;9.568;2022-08-04T02:35:55;3.00;;;2.60;;
6282;SDS011;3174;53.486;9.568;2022-08-04T02:38:30;2.88;;;2.17;;
6282;SDS011;3174;53.486;9.568;2022-08-04T02:41:07;2.67;;;2.30;;
6282;SDS011;3174;53.486;9.568;2022-08-04T02:43:36;3.90;;;2.10;;
6282;SDS011;3174;53.486;9.568;2022-08-04T02:46:19;3.17;;;2.38;;
6282;SDS011;3174;53.486;9.568;2022-08-04T02:48:48;3.20;;;2.45;;
6282;SDS011;3174;53.486;9.568;2022-08-04T02:51:19;6.88;;;2.63;;
6282;SDS011;3174;53.486;9.568;2022-08-04T02:53:52;4.53;;;2.45;;
6282;SDS011;3174;53.486;9.568;2022-08-04T02:56:21;2.50;;;2.30;;
6282;SDS011;3174;53.486;9.568;2022-08-04T02:58:51;4.27;;;2.17;;
6282;SDS011;3174;53.486;9.568;2022-08-04T03:01:21;2.73;;;2.00;;
6282;SDS011;3174;53.486;9.568;2022-08-04T03:03:52;5.43;;;2.83;;
6282;SDS011;3174;53.486;9.568;2022-08-04T03:06:49;2.95;;;2.00;;
6282;SDS011;3174;53.486;9.568;2022-08-04T03:12:38;4.35;;;2.55;;
6282;SDS011;3174;53.486;9.568;2022-08-04T03:19:00;5.43;;;2.33;;
6282;SDS011;3174;53.486;9.568;2022-08-04T03:28:07;3.00;;;2.13;;
6282;SDS011;3174;53.486;9.568;2022-08-04T03:31:10;2.67;;;2.20;;
6282;SDS011;3174;53.486;9.568;2022-08-04T03:34:07;3.35;;;2.03;;
6282;SDS011;3174;53.486;9.568;2022-08-04T03:39:55;2.73;;;2.00;;
6282;SDS011;3174;53.486;9.568;2022-08-04T03:42:50;3.78;;;1.98;;
6282;SDS011;3174;53.486;9.568;2022-08-04T03:49:22;4.63;;;2.10;;
6282;SDS011;3174;53.486;9.568;2022-08-04T03:52:12;3.73;;;2.70;;
6282;SDS011;3174;53.486;9.568;2022-08-04T03:55:22;3.07;;;2.17;;
6282;SDS011;3174;53.486;9.568;2022-08-04T04:01:29;2.43;;;1.90;;
6282;SDS011;3174;53.486;9.568;2022-08-04T04:04:38;3.50;;;2.23;;
6282;SDS011;3174;53.486;9.568;2022-08-04T04:07:49;2.87;;;1.90;;
6282;SDS011;3174;53.486;9.568;2022-08-04T04:14:00;2.37;;;2.07;;
6282;SDS011;3174;53.486;9.568;2022-08-04T04:16:45;3.50;;;2.00;;
6282;SDS011;3174;53.486;9.568;2022-08-04T04:19:33;3.43;;;1.70;;
6282;SDS011;3174;53.486;9.568;2022-08-04T04:22:28;3.37;;;1.93;;
6282;SDS011;3174;53.486;9.568;2022-08-04T04:25:18;2.77;;;2.00;;
6282;SDS011;3174;53.486;9.568;2022-08-04T04:28:03;4.22;;;2.13;;
6282;SDS011;3174;53.486;9.568;2022-08-04T04:31:14;3.97;;;2.07;;
6282;SDS011;3174;53.486;9.568;2022-08-04T04:33:54;1.83;;;1.60;;
6282;SDS011;3174;53.486;9.568;2022-08-04T04:36:32;2.43;;;2.17;;
6282;SDS011;3174;53.486;9.568;2022-08-04T04:39:10;4.37;;;1.93;;
6282;SDS011;3174;53.486;9.568;2022-08-04T04:41:46;3.17;;;1.80;;
6282;SDS011;3174;53.486;9.568;2022-08-04T04:47:26;3.83;;;2.30;;
6282;SDS011;3174;53.486;9.568;2022-08-04T04:50:19;1.90;;;1.70;;
6282;SDS011;3174;53.486;9.568;2022-08-04T04:53:03;5.93;;;2.00;;
6282;SDS011;3174;53.486;9.568;2022-08-04T04:55:39;1.67;;;1.50;;
6282;SDS011;3174;53.486;9.568;2022-08-04T04:58:13;2.67;;;1.70;;
6282;SDS011;3174;53.486;9.568;2022-08-04T05:00:48;3.57;;;1.97;;
6282;SDS011;3174;53.486;9.568;2022-08-04T05:03:35;3.07;;;1.90;;
6282;SDS011;3174;53.486;9.568;2022-08-04T05:06:19;1.80;;;1.60;;
6282;SDS011;3174;53.486;9.568;2022-08-04T05:09:02;2.53;;;1.73;;
6282;SDS011;3174;53.486;9.568;2022-08-04T05:11:44;2.53;;;1.70;;
6282;SDS011;3174;53.486;9.568;2022-08-04T05:14:28;2.00;;;1.80;;
6282;SDS011;3174;53.486;9.568;2022-08-04T05:17:11;3.00;;;1.87;;
6282;SDS011;3174;53.486;9.568;2022-08-04T05:19:44;4.93;;;1.70;;
6282;SDS011;3174;53.486;9.568;2022-08-04T05:22:20;1.70;;;1.57;;
6282;SDS011;3174;53.486;9.568;2022-08-04T05:24:53;2.90;;;1.70;;
6282;SDS011;3174;53.486;9.568;2022-08-04T05:27:27;3.40;;;1.73;;
6282;SDS011;3174;53.486;9.568;2022-08-04T05:30:01;4.57;;;2.43;;
6282;SDS011;3174;53.486;9.568;2022-08-04T05:32:34;1.90;;;1.60;;
6282;SDS011;3174;53.486;9.568;2022-08-04T05:35:09;2.10;;;1.60;;
6282;SDS011;3174;53.486;9.568;2022-08-04T05:38:02;2.47;;;1.67;;
6282;SDS011;3174;53.486;9.568;2022-08-04T05:40:34;2.07;;;1.80;;
6282;SDS011;3174;53.486;9.568;2022-08-04T05:43:05;2.60;;;1.60;;
6282;SDS011;3174;53.486;9.568;2022-08-04T05:45:33;1.90;;;1.80;;
6282;SDS011;3174;53.486;9.568;2022-08-04T05:48:06;2.23;;;1.40;;
6282;SDS011;3174;53.486;9.568;2022-08-04T05:50:34;2.40;;;1.70;;
6282;SDS011;3174;53.486;9.568;2022-08-04T05:53:03;2.43;;;1.63;;
6282;SDS011;3174;53.486;9.568;2022-08-04T05:55:33;3.60;;;1.77;;
6282;SDS011;3174;53.486;9.568;2022-08-04T05:58:22;1.93;;;1.60;;
6282;SDS011;3174;53.486;9.568;2022-08-04T06:00:50;2.47;;;1.50;;
6282;SDS011;3174;53.486;9.568;2022-08-04T06:03:19;5.90;;;2.10;;
6282;SDS011;3174;53.486;9.568;2022-08-04T06:05:48;2.90;;;1.70;;
6282;SDS011;3174;53.486;9.568;2022-08-04T06:08:16;4.95;;;2.70;;
6282;SDS011;3174;53.486;9.568;2022-08-04T06:10:46;3.50;;;1.90;;
6282;SDS011;3174;53.486;9.568;2022-08-04T06:13:16;5.00;;;1.92;;
6282;SDS011;3174;53.486;9.568;2022-08-04T06:16:08;1.77;;;1.45;;
6282;SDS011;3174;53.486;9.568;2022-08-04T06:18:56;8.18;;;2.05;;
6282;SDS011;3174;53.486;9.568;2022-08-04T06:21:48;4.60;;;2.05;;
6282;SDS011;3174;53.486;9.568;2022-08-04T06:24:18;3.88;;;1.83;;
6282;SDS011;3174;53.486;9.568;2022-08-04T06:26:48;4.63;;;2.00;;
6282;SDS011;3174;53.486;9.568;2022-08-04T06:29:17;3.78;;;2.30;;
6282;SDS011;3174;53.486;9.568;2022-08-04T06:31:50;5.80;;;2.20;;
6282;SDS011;3174;53.486;9.568;2022-08-04T06:34:45;2.38;;;1.90;;
6282;SDS011;3174;53.486;9.568;2022-08-04T06:37:13;3.08;;;1.88;;
6282;SDS011;3174;53.486;9.568;2022-08-04T06:40:03;4.97;;;1.80;;
6282;SDS011;3174;53.486;9.568;2022-08-04T06:42:53;5.32;;;2.47;;
6282;SDS011;3174;53.486;9.568;2022-08-04T06:45:22;2.85;;;1.73;;
6282;SDS011;3174;53.486;9.568;2022-08-04T06:47:51;3.08;;;1.88;;
6282;SDS011;3174;53.486;9.568;2022-08-04T06:50:20;4.95;;;1.83;;
6282;SDS011;3174;53.486;9.568;2022-08-04T06:53:09;5.07;;;2.08;;
6282;SDS011;3174;53.486;9.568;2022-08-04T06:55:38;4.75;;;1.95;;
6282;SDS011;3174;53.486;9.568;2022-08-04T06:58:09;5.13;;;2.10;;
6282;SDS011;3174;53.486;9.568;2022-08-04T07:00:37;6.65;;;1.90;;
6282;SDS011;3174;53.486;9.568;2022-08-04T07:03:07;8.25;;;2.10;;
6282;SDS011;3174;53.486;9.568;2022-08-04T07:05:37;6.43;;;2.10;;
6282;SDS011;3174;53.486;9.568;2022-08-04T07:08:07;5.38;;;1.85;;
6282;SDS011;3174;53.486;9.568;2022-08-04T07:10:37;4.43;;;2.10;;
6282;SDS011;3174;53.486;9.568;2022-08-04T07:13:05;5.43;;;2.20;;
6282;SDS011;3174;53.486;9.568;2022-08-04T07:15:36;6.40;;;1.80;;
6282;SDS011;3174;53.486;9.568;2022-08-04T07:18:06;5.15;;;2.65;;
6282;SDS011;3174;53.486;9.568;2022-08-04T07:20:34;4.70;;;1.70;;
6282;SDS011;3174;53.486;9.568;2022-08-04T07:23:02;6.90;;;1.90;;
6282;SDS011;3174;53.486;9.568;2022-08-04T07:25:31;6.93;;;2.28;;
6282;SDS011;3174;53.486;9.568;2022-08-04T07:28:20;6.47;;;2.08;;
6282;SDS011;3174;53.486;9.568;2022-08-04T07:30:52;4.85;;;1.65;;
6282;SDS011;3174;53.486;9.568;2022-08-04T07:33:21;7.93;;;2.15;;
6282;SDS011;3174;53.486;9.568;2022-08-04T07:35:53;6.10;;;2.10;;
6282;SDS011;3174;53.486;9.568;2022-08-04T07:38:34;6.13;;;2.20;;
6282;SDS011;3174;53.486;9.568;2022-08-04T07:41:19;9.88;;;1.95;;
6282;SDS011;3174;53.486;9.568;2022-08-04T07:44:06;5.05;;;2.88;;
6282;SDS011;3174;53.486;9.568;2022-08-04T07:46:36;3.97;;;2.08;;
6282;SDS011;3174;53.486;9.568;2022-08-04T07:49:04;3.80;;;1.80;;
6282;SDS011;3174;53.486;9.568;2022-08-04T07:51:33;4.43;;;1.92;;
6282;SDS011;3174;53.486;9.568;2022-08-04T07:54:03;4.65;;;1.80;;
6282;SDS011;3174;53.486;9.568;2022-08-04T07:56:33;2.42;;;1.90;;
6282;SDS011;3174;53.486;9.568;2022-08-04T07:59:02;2.35;;;1.55;;
6282;SDS011;3174;53.486;9.568;2022-08-04T08:01:31;5.20;;;2.20;;
6282;SDS011;3174;53.486;9.568;2022-08-04T08:04:01;3.60;;;1.80;;
6282;SDS011;3174;53.486;9.568;2022-08-04T08:06:33;4.97;;;1.70;;
6282;SDS011;3174;53.486;9.568;2022-08-04T08:09:09;4.25;;;2.03;;
6282;SDS011;3174;53.486;9.568;2022-08-04T08:11:40;4.53;;;1.70;;
6282;SDS011;3174;53.486;9.568;2022-08-04T08:14:28;2.70;;;1.80;;
6282;SDS011;3174;53.486;9.568;2022-08-04T08:16:57;4.28;;;1.63;;
6282;SDS011;3174;53.486;9.568;2022-08-04T08:19:28;2.88;;;2.03;;
6282;SDS011;3174;53.486;9.568;2022-08-04T08:21:56;3.25;;;1.75;;
6282;SDS011;3174;53.486;9.568;2022-08-04T08:24:26;4.53;;;1.95;;
6282;SDS011;3174;53.486;9.568;2022-08-04T08:26:55;5.53;;;1.90;;
6282;SDS011;3174;53.486;9.568;2022-08-04T08:29:23;3.85;;;2.17;;
6282;SDS011;3174;53.486;9.568;2022-08-04T08:31:52;8.82;;;2.22;;
6282;SDS011;3174;53.486;9.568;2022-08-04T08:34:29;6.85;;;2.20;;
6282;SDS011;3174;53.486;9.568;2022-08-04T08:36:58;4.25;;;2.72;;
6282;SDS011;3174;53.486;9.568;2022-08-04T08:39:33;6.45;;;2.10;;
6282;SDS011;3174;53.486;9.568;2022-08-04T08:42:22;2.70;;;1.85;;
6282;SDS011;3174;53.486;9.568;2022-08-04T08:45:21;2.40;;;1.83;;
6282;SDS011;3174;53.486;9.568;2022-08-04T08:48:06;3.50;;;1.60;;
6282;SDS011;3174;53.486;9.568;2022-08-04T08:50:58;5.43;;;1.80;;
6282;SDS011;3174;53.486;9.568;2022-08-04T08:53:53;3.38;;;2.05;;
6282;SDS011;3174;53.486;9.568;2022-08-04T08:56:27;3.65;;;2.20;;
6282;SDS011;3174;53.486;9.568;2022-08-04T08:59:15;4.00;;;2.10;;
6282;SDS011;3174;53.486;9.568;2022-08-04T09:02:02;5.70;;;2.55;;
6282;SDS011;3174;53.486;9.568;2022-08-04T09:04:55;3.88;;;2.08;;
6282;SDS011;3174;53.486;9.568;2022-08-04T09:07:55;3.97;;;2.05;;
6282;SDS011;3174;53.486;9.568;2022-08-04T09:10:31;2.47;;;2.28;;
6282;SDS011;3174;53.486;9.568;2022-08-04T09:13:05;9.38;;;2.30;;
6282;SDS011;3174;53.486;9.568;2022-08-04T09:15:38;2.05;;;1.83;;
6282;SDS011;3174;53.486;9.568;2022-08-04T09:18:21;4.20;;;2.00;;
6282;SDS011;3174;53.486;9.568;2022-08-04T09:20:54;6.80;;;2.05;;
6282;SDS011;3174;53.486;9.568;2022-08-04T09:23:35;6.15;;;2.20;;
6282;SDS011;3174;53.486;9.568;2022-08-04T09:26:13;2.22;;;1.77;;
6282;SDS011;3174;53.486;9.568;2022-08-04T09:28:47;1.85;;;1.75;;
6282;SDS011;3174;53.486;9.568;2022-08-04T09:31:21;7.57;;;2.20;;
6282;SDS011;3174;53.486;9.568;2022-08-04T09:33:54;3.15;;;2.00;;
6282;SDS011;3174;53.486;9.568;2022-08-04T09:36:27;5.78;;;2.35;;
6282;SDS011;3174;53.486;9.568;2022-08-04T09:39:06;4.15;;;2.10;;
6282;SDS011;3174;53.486;9.568;2022-08-04T09:41:42;4.20;;;2.20;;
6282;SDS011;3174;53.486;9.568;2022-08-04T09:44:20;2.47;;;1.90;;
6282;SDS011;3174;53.486;9.568;2022-08-04T09:47:16;2.13;;;1.92;;
6282;SDS011;3174;53.486;9.568;2022-08-04T09:49:49;3.38;;;2.13;;
6282;SDS011;3174;53.486;9.568;2022-08-04T09:52:24;1.92;;;1.83;;
6282;SDS011;3174;53.486;9.568;2022-08-04T09:55:01;3.28;;;2.58;;
6282;SDS011;3174;53.486;9.568;2022-08-04T09:57:38;3.67;;;2.08;;
6282;SDS011;3174;53.486;9.568;2022-08-04T10:00:12;3.03;;;2.10;;
6282;SDS011;3174;53.486;9.568;2022-08-04T10:02:43;3.22;;;2.10;;
6282;SDS011;3174;53.486;9.568;2022-08-04T10:05:15;2.15;;;1.95;;
6282;SDS011;3174;53.486;9.568;2022-08-04T10:07:53;5.22;;;2.28;;
6282;SDS011;3174;53.486;9.568;2022-08-04T10:10:46;2.30;;;2.10;;
6282;SDS011;3174;53.486;9.568;2022-08-04T10:13:22;4.72;;;2.10;;
6282;SDS011;3174;53.486;9.568;2022-08-04T10:16:06;2.72;;;1.80;;
6282;SDS011;3174;53.486;9.568;2022-08-04T10:18:47;2.50;;;2.22;;
6282;SDS011;3174;53.486;9.568;2022-08-04T10:21:22;2.60;;;2.17;;
6282;SDS011;3174;53.486;9.568;2022-08-04T10:24:01;2.70;;;2.15;;
6282;SDS011;3174;53.486;9.568;2022-08-04T10:26:57;2.40;;;2.20;;
6282;SDS011;3174;53.486;9.568;2022-08-04T10:29:29;3.40;;;2.10;;
6282;SDS011;3174;53.486;9.568;2022-08-04T10:32:05;2.88;;;2.25;;
6282;SDS011;3174;53.486;9.568;2022-08-04T10:34:39;2.20;;;2.00;;
6282;SDS011;3174;53.486;9.568;2022-08-04T10:37:12;7.07;;;2.30;;
6282;SDS011;3174;53.486;9.568;2022-08-04T10:39:50;4.57;;;2.17;;
6282;SDS011;3174;53.486;9.568;2022-08-04T10:42:46;4.53;;;2.10;;
6282;SDS011;3174;53.486;9.568;2022-08-04T10:45:26;3.22;;;2.33;;
6282;SDS011;3174;53.486;9.568;2022-08-04T10:48:01;2.58;;;2.00;;
6282;SDS011;3174;53.486;9.568;2022-08-04T10:50:39;2.40;;;2.20;;
6282;SDS011;3174;53.486;9.568;2022-08-04T10:53:13;2.20;;;2.00;;
6282;SDS011;3174;53.486;9.568;2022-08-04T10:55:46;1.95;;;1.83;;
6282;SDS011;3174;53.486;9.568;2022-08-04T10:58:37;3.30;;;2.20;;
6282;SDS011;3174;53.486;9.568;2022-08-04T11:01:14;5.40;;;2.25;;
6282;SDS011;3174;53.486;9.568;2022-08-04T11:04:09;2.30;;;2.10;;
6282;SDS011;3174;53.486;9.568;2022-08-04T11:06:53;3.25;;;2.15;;
6282;SDS011;3174;53.486;9.568;2022-08-04T11:09:26;2.38;;;2.17;;
6282;SDS011;3174;53.486;9.568;2022-08-04T11:11:55;2.55;;;2.35;;
6282;SDS011;3174;53.486;9.568;2022-08-04T11:14:30;2.83;;;2.63;;
6282;SDS011;3174;53.486;9.568;2022-08-04T11:17:03;4.38;;;2.25;;
6282;SDS011;3174;53.486;9.568;2022-08-04T11:19:34;3.95;;;2.58;;
6282;SDS011;3174;53.486;9.568;2022-08-04T11:22:13;2.63;;;2.40;;
6282;SDS011;3174;53.486;9.568;2022-08-04T11:24:44;2.50;;;2.20;;
6282;SDS011;3174;53.486;9.568;2022-08-04T11:27:19;2.80;;;2.50;;
6282;SDS011;3174;53.486;9.568;2022-08-04T11:29:58;2.50;;;2.30;;
6282;SDS011;3174;53.486;9.568;2022-08-04T11:32:33;3.65;;;2.15;;
6282;SDS011;3174;53.486;9.568;2022-08-04T11:35:06;3.45;;;2.28;;
6282;SDS011;3174;53.486;9.568;2022-08-04T11:37:42;4.00;;;2.28;;
6282;SDS011;3174;53.486;9.568;2022-08-04T11:40:14;2.80;;;2.50;;
6282;SDS011;3174;53.486;9.568;2022-08-04T11:42:51;2.70;;;2.40;;
6282;SDS011;3174;53.486;9.568;2022-08-04T11:45:23;2.55;;;2.33;;
6282;SDS011;3174;53.486;9.568;2022-08-04T11:48:02;3.72;;;2.08;;
6282;SDS011;3174;53.486;9.568;2022-08-04T11:50:33;2.22;;;2.03;;
6282;SDS011;3174;53.486;9.568;2022-08-04T11:53:07;3.67;;;2.70;;
6282;SDS011;3174;53.486;9.568;2022-08-04T11:55:41;6.18;;;2.22;;
6282;SDS011;3174;53.486;9.568;2022-08-04T11:58:35;2.47;;;2.28;;
6282;SDS011;3174;53.486;9.568;2022-08-04T12:01:10;4.25;;;2.20;;
6282;SDS011;3174;53.486;9.568;2022-08-04T12:03:54;2.42;;;2.22;;
6282;SDS011;3174;53.486;9.568;2022-08-04T12:06:35;5.13;;;2.65;;
6282;SDS011;3174;53.486;9.568;2022-08-04T12:09:39;2.50;;;2.30;;
6282;SDS011;3174;53.486;9.568;2022-08-04T12:12:12;3.50;;;2.50;;
6282;SDS011;3174;53.486;9.568;2022-08-04T12:14:48;2.90;;;2.70;;
6282;SDS011;3174;53.486;9.568;2022-08-04T12:17:23;2.78;;;2.53;;
6282;SDS011;3174;53.486;9.568;2022-08-04T12:20:15;3.25;;;2.90;;
6282;SDS011;3174;53.486;9.568;2022-08-04T12:23:04;2.35;;;2.15;;
6282;SDS011;3174;53.486;9.568;2022-08-04T12:25:37;2.65;;;2.42;;
6282;SDS011;3174;53.486;9.568;2022-08-04T12:28:11;5.05;;;2.72;;
6282;SDS011;3174;53.486;9.568;2022-08-04T12:30:44;4.13;;;2.58;;
6282;SDS011;3174;53.486;9.568;2022-08-04T12:33:30;4.70;;;2.53;;
6282;SDS011;3174;53.486;9.568;2022-08-04T12:36:26;3.10;;;2.42;;
6282;SDS011;3174;53.486;9.568;2022-08-04T12:38:58;5.53;;;2.60;;
6282;SDS011;3174;53.486;9.568;2022-08-04T12:41:33;2.92;;;2.17;;
6282;SDS011;3174;53.486;9.568;2022-08-04T12:44:05;2.47;;;2.28;;
6282;SDS011;3174;53.486;9.568;2022-08-04T12:46:57;2.10;;;2.00;;
6282;SDS011;3174;53.486;9.568;2022-08-04T12:49:47;2.85;;;2.10;;
6282;SDS011;3174;53.486;9.568;2022-08-04T12:52:26;3.03;;;2.20;;
6282;SDS011;3174;53.486;9.568;2022-08-04T12:55:16;2.70;;;2.50;;
6282;SDS011;3174;53.486;9.568;2022-08-04T12:57:44;6.15;;;2.22;;
6282;SDS011;3174;53.486;9.568;2022-08-04T13:00:24;3.38;;;2.13;;
6282;SDS011;3174;53.486;9.568;2022-08-04T13:03:00;4.05;;;2.20;;
6282;SDS011;3174;53.486;9.568;2022-08-04T13:05:37;3.45;;;1.80;;
6282;SDS011;3174;53.486;9.568;2022-08-04T13:08:13;2.30;;;2.10;;
6282;SDS011;3174;53.486;9.568;2022-08-04T13:10:43;3.72;;;2.13;;
6282;SDS011;3174;53.486;9.568;2022-08-04T13:13:15;3.30;;;2.20;;
6282;SDS011;3174;53.486;9.568;2022-08-04T13:15:53;2.67;;;2.00;;
6282;SDS011;3174;53.486;9.568;2022-08-04T13:18:26;3.40;;;2.10;;
6282;SDS011;3174;53.486;9.568;2022-08-04T13:21:17;3.47;;;2.20;;
6282;SDS011;3174;53.486;9.568;2022-08-04T13:24:08;2.40;;;1.92;;
6282;SDS011;3174;53.486;9.568;2022-08-04T13:26:57;2.38;;;2.00;;
6282;SDS011;3174;53.486;9.568;2022-08-04T13:29:30;3.15;;;1.95;;
6282;SDS011;3174;53.486;9.568;2022-08-04T13:32:22;3.35;;;1.83;;
6282;SDS011;3174;53.486;9.568;2022-08-04T13:34:51;3.78;;;2.20;;
6282;SDS011;3174;53.486;9.568;2022-08-04T13:37:23;2.00;;;1.80;;
6282;SDS011;3174;53.486;9.568;2022-08-04T13:39:53;2.15;;;1.70;;
6282;SDS011;3174;53.486;9.568;2022-08-04T13:42:23;2.13;;;1.88;;
6282;SDS011;3174;53.486;9.568;2022-08-04T13:44:53;3.35;;;1.90;;
6282;SDS011;3174;53.486;9.568;2022-08-04T13:47:24;3.40;;;2.28;;
6282;SDS011;3174;53.486;9.568;2022-08-04T13:50:14;2.17;;;1.95;;
6282;SDS011;3174;53.486;9.568;2022-08-04T13:52:46;3.03;;;2.03;;
6282;SDS011;3174;53.486;9.568;2022-08-04T13:55:19;4.25;;;2.08;;
6282;SDS011;3174;53.486;9.568;2022-08-04T13:57:52;3.03;;;2.00;;
6282;SDS011;3174;53.486;9.568;2022-08-04T14:00:22;3.28;;;2.03;;
6282;SDS011;3174;53.486;9.568;2022-08-04T14:02:59;2.88;;;2.20;;
6282;SDS011;3174;53.486;9.568;2022-08-04T14:06:08;3.10;;;2.17;;
6282;SDS011;3174;53.486;9.568;2022-08-04T14:08:46;3.05;;;1.80;;
6282;SDS011;3174;53.486;9.568;2022-08-04T14:11:17;3.25;;;2.05;;
6282;SDS011;3174;53.486;9.568;2022-08-04T14:14:15;4.18;;;1.88;;
6282;SDS011;3174;53.486;9.568;2022-08-04T14:16:55;5.93;;;2.88;;
6282;SDS011;3174;53.486;9.568;2022-08-04T14:19:27;7.60;;;2.65;;
6282;SDS011;3174;53.486;9.568;2022-08-04T14:22:22;6.63;;;3.13;;
6282;SDS011;3174;53.486;9.568;2022-08-04T14:24:56;5.22;;;3.08;;
6282;SDS011;3174;53.486;9.568;2022-08-04T14:27:27;4.82;;;2.58;;
6282;SDS011;3174;53.486;9.568;2022-08-04T14:29:55;4.95;;;2.58;;
6282;SDS011;3174;53.486;9.568;2022-08-04T14:32:26;6.78;;;3.08;;
6282;SDS011;3174;53.486;9.568;2022-08-04T14:34:54;5.53;;;2.70;;
6282;SDS011;3174;53.486;9.568;2022-08-04T14:37:23;6.95;;;2.67;;
6282;SDS011;3174;53.486;9.568;2022-08-04T14:39:52;5.43;;;2.67;;
6282;SDS011;3174;53.486;9.568;2022-08-04T14:42:42;8.15;;;3.40;;
6282;SDS011;3174;53.486;9.568;2022-08-04T14:45:30;6.70;;;3.40;;
6282;SDS011;3174;53.486;9.568;2022-08-04T14:47:59;7.10;;;3.72;;
6282;SDS011;3174;53.486;9.568;2022-08-04T14:50:33;8.05;;;3.85;;
6282;SDS011;3174;53.486;9.568;2022-08-04T14:53:03;6.75;;;3.67;;
6282;SDS011;3174;53.486;9.568;2022-08-04T14:55:34;6.90;;;4.43;;
6282;SDS011;3174;53.486;9.568;2022-08-04T14:58:04;9.38;;;3.53;;
6282;SDS011;3174;53.486;9.568;2022-08-04T15:00:54;8.57;;;3.95;;
6282;SDS011;3174;53.486;9.568;2022-08-04T15:03:24;5.85;;;2.95;;
6282;SDS011;3174;53.486;9.568;2022-08-04T15:05:54;5.50;;;3.20;;
6282;SDS011;3174;53.486;9.568;2022-08-04T15:08:33;7.95;;;3.30;;
6282;SDS011;3174;53.486;9.568;2022-08-04T15:11:01;8.13;;;3.45;;
6282;SDS011;3174;53.486;9.568;2022-08-04T15:13:31;4.35;;;2.60;;
6282;SDS011;3174;53.486;9.568;2022-08-04T15:16:03;6.93;;;2.60;;
6282;SDS011;3174;53.486;9.568;2022-08-04T15:18:38;9.23;;;3.22;;
6282;SDS011;3174;53.486;9.568;2022-08-04T15:21:14;10.40;;;3.30;;
6282;SDS011;3174;53.486;9.568;2022-08-04T15:23:45;7.18;;;3.03;;
6282;SDS011;3174;53.486;9.568;2022-08-04T15:26:14;9.68;;;3.30;;
6282;SDS011;3174;53.486;9.568;2022-08-04T15:28:49;7.78;;;2.65;;
6282;SDS011;3174;53.486;9.568;2022-08-04T15:31:19;6.88;;;2.70;;
6282;SDS011;3174;53.486;9.568;2022-08-04T15:34:11;5.60;;;2.33;;
6282;SDS011;3174;53.486;9.568;2022-08-04T15:36:47;4.88;;;2.20;;
6282;SDS011;3174;53.486;9.568;2022-08-04T15:39:26;6.28;;;2.40;;
6282;SDS011;3174;53.486;9.568;2022-08-04T15:42:07;6.78;;;1.83;;
6282;SDS011;3174;53.486;9.568;2022-08-04T15:51:06;4.30;;;1.95;;
6282;SDS011;3174;53.486;9.568;2022-08-04T15:56:54;4.28;;;1.75;;
6282;SDS011;3174;53.486;9.568;2022-08-04T16:02:42;4.65;;;1.75;;
6282;SDS011;3174;53.486;9.568;2022-08-04T16:05:32;6.43;;;1.85;;
6282;SDS011;3174;53.486;9.568;2022-08-04T16:08:12;3.20;;;2.03;;
6282;SDS011;3174;53.486;9.568;2022-08-04T16:10:42;6.25;;;2.00;;
6282;SDS011;3174;53.486;9.568;2022-08-04T16:13:15;2.75;;;1.85;;
6282;SDS011;3174;53.486;9.568;2022-08-04T16:15:46;2.33;;;1.50;;
6282;SDS011;3174;53.486;9.568;2022-08-04T16:18:36;2.72;;;1.80;;
6282;SDS011;3174;53.486;9.568;2022-08-04T16:21:15;2.28;;;1.63;;
6282;SDS011;3174;53.486;9.568;2022-08-04T16:23:55;2.75;;;1.73;;
6282;SDS011;3174;53.486;9.568;2022-08-04T16:26:46;3.67;;;1.80;;
6282;SDS011;3174;53.486;9.568;2022-08-04T16:29:34;5.70;;;1.67;;
6282;SDS011;3174;53.486;9.568;2022-08-04T16:32:11;3.08;;;1.70;;
6282;SDS011;3174;53.486;9.568;2022-08-04T16:34:51;6.13;;;2.00;;
6282;SDS011;3174;53.486;9.568;2022-08-04T16:37:23;2.63;;;1.65;;
6282;SDS011;3174;53.486;9.568;2022-08-04T16:43:05;5.55;;;2.00;;
6282;SDS011;3174;53.486;9.568;2022-08-04T16:45:38;5.13;;;1.90;;
6282;SDS011;3174;53.486;9.568;2022-08-04T16:48:07;2.80;;;1.70;;
6282;SDS011;3174;53.486;9.568;2022-08-04T16:50:54;4.20;;;1.70;;
6282;SDS011;3174;53.486;9.568;2022-08-04T16:53:34;3.13;;;1.73;;
6282;SDS011;3174;53.486;9.568;2022-08-04T16:56:20;5.68;;;2.40;;
6282;SDS011;3174;53.486;9.568;2022-08-04T16:59:04;6.65;;;2.05;;
6282;SDS011;3174;53.486;9.568;2022-08-04T17:01:33;3.25;;;1.88;;
6282;SDS011;3174;53.486;9.568;2022-08-04T17:04:04;5.20;;;2.08;;
6282;SDS011;3174;53.486;9.568;2022-08-04T17:06:39;3.28;;;1.85;;